Time;durP1;ratioP1;P1;durP2;ratioP2;P2;SDS_P1;SDS_P2;PMS_P1;PMS_P2;Temp;Humidity;BMP_temperature;BMP_pressure;BME280_temperature;BME280_humidity;BME280_pressure;Samples;Min_cycle;Max_cycle;Signal;HPM_P1;HPM_P2
2022/09/07 00:03:57;;;;;;;16.60;9.30;;;15.50;99.90;;;;;;8328390;28;20372;-81
2022/09/07 00:07:58;;;;;;;13.82;8.25;;;15.60;99.90;;;;;;8311212;28;20104;-78
2022/09/07 00:11:59;;;;;;;17.25;9.38;;;15.70;99.90;;;;;;8332137;28;20022;-78
2022/09/07 00:16:07;;;;;;;14.27;7.45;;;15.60;99.90;;;;;;8310593;28;20501;-78
2022/09/07 00:20:09;;;;;;;15.38;8.98;;;15.60;99.90;;;;;;8328307;28;20641;-78
2022/09/07 00:24:10;;;;;;;16.98;8.60;;;15.50;99.90;;;;;;8318876;28;20087;-79
2022/09/07 00:28:10;;;;;;;16.55;9.20;;;15.70;99.90;;;;;;8313856;28;20550;-79
2022/09/07 00:32:11;;;;;;;14.18;8.82;;;15.60;99.90;;;;;;8314188;28;20067;-79
2022/09/07 00:36:11;;;;;;;12.70;8.88;;;15.60;99.90;;;;;;8317476;28;20029;-79
2022/09/07 00:40:12;;;;;;;13.23;8.15;;;15.50;99.90;;;;;;8317499;28;20372;-79
2022/09/07 00:44:37;;;;;;;17.38;8.73;;;15.60;99.90;;;;;;8317349;28;20025;-79
2022/09/07 00:48:44;;;;;;;13.45;9.38;;;15.60;99.90;;;;;;8338297;28;20670;-78
2022/09/07 00:52:49;;;;;;;12.05;7.82;;;15.50;99.90;;;;;;8332571;22;20076;-78
2022/09/07 00:56:51;;;;;;;17.10;9.50;;;15.50;99.90;;;;;;8283063;28;20029;-79
2022/09/07 01:00:54;;;;;;;14.50;9.77;;;15.50;99.90;;;;;;8310122;28;20030;-79
2022/09/07 01:05:06;;;;;;;16.00;10.20;;;15.50;99.90;;;;;;8314772;28;20030;-78
2022/09/07 01:09:16;;;;;;;14.13;10.27;;;15.50;99.90;;;;;;8300924;28;20029;-78
2022/09/07 01:13:17;;;;;;;15.70;9.77;;;15.50;99.90;;;;;;8313203;28;20025;-78
2022/09/07 01:17:32;;;;;;;17.90;9.32;;;15.50;99.90;;;;;;8292243;28;20037;-78
2022/09/07 01:21:35;;;;;;;18.98;10.15;;;15.50;99.90;;;;;;8291891;28;20085;-78
2022/09/07 01:25:57;;;;;;;16.80;9.23;;;15.50;99.90;;;;;;8284366;28;20036;-78
2022/09/07 01:30:10;;;;;;;16.77;9.07;;;15.60;99.90;;;;;;8306892;28;20026;-78
2022/09/07 01:34:23;;;;;;;13.93;9.57;;;15.70;99.90;;;;;;8288758;28;20033;-78
2022/09/07 01:38:35;;;;;;;15.57;8.88;;;15.70;99.90;;;;;;8293493;28;20030;-78
2022/09/07 01:43:00;;;;;;;13.65;8.30;;;15.70;99.90;;;;;;8317374;28;20515;-77
2022/09/07 01:47:24;;;;;;;11.32;7.88;;;15.80;99.90;;;;;;8295680;28;20028;-77
2022/09/07 01:51:30;;;;;;;16.05;8.45;;;16.00;99.90;;;;;;8319501;28;20022;-78
2022/09/07 01:55:35;;;;;;;16.10;8.30;;;15.90;99.90;;;;;;8301777;28;20038;-78
2022/09/07 01:59:47;;;;;;;11.75;8.45;;;16.10;99.90;;;;;;8290812;28;20638;-77
2022/09/07 02:03:59;;;;;;;14.73;8.07;;;16.50;99.90;;;;;;8297727;28;20036;-78
2022/09/07 02:08:06;;;;;;;16.80;8.98;;;16.50;99.90;;;;;;8294845;28;20665;-78
2022/09/07 02:12:15;;;;;;;15.50;8.93;;;16.30;99.90;;;;;;8286814;28;20018;-78
2022/09/07 02:16:22;;;;;;;15.77;9.95;;;16.10;99.90;;;;;;8313118;28;20041;-78
2022/09/07 02:20:30;;;;;;;15.93;9.75;;;16.30;99.90;;;;;;8305209;28;20030;-79
2022/09/07 02:24:39;;;;;;;19.88;11.45;;;16.10;99.90;;;;;;8311186;28;20045;-78
2022/09/07 02:28:40;;;;;;;19.17;13.10;;;16.10;99.90;;;;;;8291618;28;20419;-79
2022/09/07 02:32:41;;;;;;;17.35;12.63;;;16.00;99.90;;;;;;8307408;28;20026;-78
2022/09/07 02:36:46;;;;;;;16.85;10.93;;;16.10;99.90;;;;;;8311958;28;20431;-78
2022/09/07 02:40:55;;;;;;;16.10;11.57;;;16.10;99.90;;;;;;8294557;28;20037;-78
2022/09/07 02:44:56;;;;;;;17.43;11.30;;;16.10;99.90;;;;;;8311611;28;20041;-78
2022/09/07 02:49:26;;;;;;;15.70;11.13;;;16.00;99.90;;;;;;8315561;28;20537;-78
2022/09/07 02:53:27;;;;;;;15.90;11.15;;;15.90;99.90;;;;;;8310068;28;20032;-78
2022/09/07 02:57:36;;;;;;;17.98;11.70;;;15.70;99.90;;;;;;8311277;28;20639;-78
2022/09/07 03:01:49;;;;;;;18.45;11.50;;;15.60;99.90;;;;;;8301297;28;20033;-77
2022/09/07 03:06:02;;;;;;;16.10;12.13;;;15.60;99.90;;;;;;8303365;28;20065;-78
2022/09/07 03:10:06;;;;;;;21.65;13.05;;;15.50;99.90;;;;;;8315952;28;20025;-78
2022/09/07 03:14:22;;;;;;;22.80;13.75;;;15.50;99.90;;;;;;8297754;28;20567;-78
2022/09/07 03:18:24;;;;;;;21.20;13.32;;;15.80;99.90;;;;;;8308006;28;20057;-78
2022/09/07 03:22:25;;;;;;;26.48;13.50;;;15.90;99.90;;;;;;8295454;28;20033;-78
2022/09/07 03:26:25;;;;;;;20.25;12.40;;;16.20;99.90;;;;;;8310205;28;20041;-78
2022/09/07 03:30:26;;;;;;;21.23;12.57;;;16.30;99.90;;;;;;8304780;28;20061;-78
2022/09/07 03:34:26;;;;;;;19.48;11.77;;;16.20;99.90;;;;;;8294393;28;20022;-78
2022/09/07 03:38:28;;;;;;;17.23;10.68;;;16.10;99.90;;;;;;8313713;28;20616;-77
2022/09/07 03:42:28;;;;;;;13.18;9.93;;;16.20;99.90;;;;;;8320514;28;20038;-79
2022/09/07 03:46:29;;;;;;;13.18;10.05;;;16.10;99.90;;;;;;8287156;28;20034;-78
2022/09/07 03:50:30;;;;;;;11.73;8.93;;;16.20;99.90;;;;;;8297770;28;20026;-78
2022/09/07 03:54:30;;;;;;;15.70;9.73;;;16.00;99.90;;;;;;8287835;28;20045;-78
2022/09/07 03:58:32;;;;;;;22.70;11.52;;;15.60;99.90;;;;;;8286372;28;20109;-77
2022/09/07 04:02:33;;;;;;;14.35;10.48;;;15.40;99.90;;;;;;8292392;28;20069;-77
2022/09/07 04:06:33;;;;;;;17.52;11.40;;;15.50;99.90;;;;;;8302564;28;20407;-77
2022/09/07 04:10:38;;;;;;;19.05;10.88;;;15.50;99.90;;;;;;8307192;28;20474;-77
2022/09/07 04:14:38;;;;;;;14.30;10.35;;;15.50;99.90;;;;;;8289193;28;20106;-76
2022/09/07 04:18:40;;;;;;;15.25;10.73;;;15.50;99.90;;;;;;8303573;28;20042;-78
2022/09/07 04:22:40;;;;;;;15.88;9.88;;;15.50;99.90;;;;;;8309573;28;20076;-78
2022/09/07 04:26:42;;;;;;;11.55;7.38;;;15.40;99.90;;;;;;8288144;28;20041;-77
2022/09/07 04:30:43;;;;;;;12.35;6.72;;;15.40;99.90;;;;;;8303830;28;20061;-78
2022/09/07 04:34:43;;;;;;;10.55;6.78;;;15.60;99.90;;;;;;8307986;28;20080;-78
2022/09/07 04:38:44;;;;;;;9.10;6.68;;;15.90;99.90;;;;;;8302818;28;20101;-78
2022/09/07 04:42:45;;;;;;;10.23;7.30;;;16.00;99.90;;;;;;8287410;28;20026;-77
2022/09/07 04:46:45;;;;;;;10.10;6.70;;;16.20;99.90;;;;;;8286964;28;20037;-79
2022/09/07 04:50:46;;;;;;;8.70;6.65;;;16.20;99.90;;;;;;8302542;28;20411;-78
2022/09/07 04:54:50;;;;;;;9.27;5.95;;;16.10;99.90;;;;;;8294587;28;20033;-78
2022/09/07 04:58:51;;;;;;;15.07;6.90;;;16.10;99.90;;;;;;8306499;28;20030;-78
2022/09/07 05:02:51;;;;;;;10.30;6.38;;;16.20;99.90;;;;;;8306632;28;20026;-77
2022/09/07 05:06:53;;;;;;;9.35;5.32;;;16.40;99.90;;;;;;8306282;28;20041;-78
2022/09/07 05:10:55;;;;;;;8.43;5.10;;;16.40;99.90;;;;;;8307764;28;20080;-77
2022/09/07 05:14:56;;;;;;;8.00;4.97;;;16.40;99.90;;;;;;8307566;28;20030;-77
2022/09/07 05:19:00;;;;;;;5.55;3.97;;;16.50;99.90;;;;;;8306538;28;20395;-77
2022/09/07 05:23:00;;;;;;;6.05;3.88;;;16.70;99.90;;;;;;8306416;28;20022;-78
2022/09/07 05:27:02;;;;;;;7.20;4.20;;;16.90;99.90;;;;;;8287307;28;20490;-78
2022/09/07 05:31:08;;;;;;;5.80;3.92;;;17.20;99.90;;;;;;8307585;28;20540;-78
2022/09/07 05:35:08;;;;;;;7.07;4.03;;;17.30;99.90;;;;;;8285170;28;20047;-79
2022/09/07 05:39:09;;;;;;;6.40;3.85;;;17.50;99.90;;;;;;8312713;28;20029;-79
2022/09/07 05:43:10;;;;;;;5.85;3.90;;;17.60;99.90;;;;;;8293701;28;20040;-79
2022/09/07 05:47:11;;;;;;;4.43;3.35;;;17.70;99.90;;;;;;8316644;28;20032;-79
2022/09/07 05:51:12;;;;;;;7.10;3.35;;;17.90;99.90;;;;;;8316599;28;20014;-79
2022/09/07 05:55:13;;;;;;;8.25;4.03;;;18.20;99.90;;;;;;8303041;28;20029;-79
2022/09/07 05:59:13;;;;;;;7.32;3.30;;;18.40;99.90;;;;;;8298083;28;20039;-79
2022/09/07 06:03:14;;;;;;;5.22;3.05;;;18.70;99.90;;;;;;8299776;28;20025;-78
2022/09/07 06:07:14;;;;;;;6.88;3.25;;;19.00;99.90;;;;;;8317888;28;20025;-79
2022/09/07 06:11:17;;;;;;;4.70;2.70;;;19.50;99.90;;;;;;8300546;28;20021;-79
2022/09/07 06:15:18;;;;;;;5.07;3.03;;;19.70;99.90;;;;;;8300875;28;20025;-79
2022/09/07 06:19:18;;;;;;;2.92;2.20;;;19.90;99.90;;;;;;8323158;28;20100;-79
2022/09/07 06:23:19;;;;;;;3.45;2.13;;;19.80;99.90;;;;;;8290788;28;20029;-78
2022/09/07 06:27:19;;;;;;;4.18;2.53;;;20.00;99.90;;;;;;8305461;28;20017;-79
2022/09/07 06:31:22;;;;;;;4.47;2.20;;;20.00;99.90;;;;;;8309700;28;20021;-78
2022/09/07 06:35:23;;;;;;;4.22;2.35;;;20.10;99.90;;;;;;8290464;28;20022;-79
2022/09/07 06:39:23;;;;;;;5.63;2.60;;;19.90;99.90;;;;;;8292261;28;20407;-79
2022/09/07 06:43:24;;;;;;;5.07;2.53;;;19.90;99.90;;;;;;8290891;28;20029;-79
2022/09/07 06:47:24;;;;;;;2.80;1.80;;;20.10;99.90;;;;;;8291271;28;20049;-79
2022/09/07 06:51:25;;;;;;;6.53;2.55;;;20.10;99.90;;;;;;8307597;28;20021;-80
2022/09/07 06:55:27;;;;;;;6.57;2.28;;;20.10;99.90;;;;;;8316820;28;20046;-79
2022/09/07 06:59:28;;;;;;;4.95;2.13;;;20.00;99.90;;;;;;8295262;28;20018;-79
2022/09/07 07:03:28;;;;;;;4.55;2.60;;;20.00;99.90;;;;;;8297114;28;20084;-79
2022/09/07 07:07:29;;;;;;;5.72;2.50;;;19.90;99.90;;;;;;8315345;28;20040;-79
2022/09/07 07:11:30;;;;;;;4.63;2.67;;;19.90;99.90;;;;;;8315116;28;20061;-79
2022/09/07 07:15:31;;;;;;;6.38;3.15;;;20.00;99.90;;;;;;8314476;28;20026;-79
2022/09/07 07:19:31;;;;;;;5.40;3.20;;;19.90;99.90;;;;;;8296781;28;20029;-79
2022/09/07 07:23:33;;;;;;;8.02;3.47;;;20.00;99.90;;;;;;8295878;28;20030;-79
2022/09/07 07:27:33;;;;;;;4.65;2.75;;;20.20;99.90;;;;;;8293295;28;20455;-80
2022/09/07 07:31:35;;;;;;;4.68;2.72;;;20.20;99.90;;;;;;8315996;28;20018;-79
2022/09/07 07:35:35;;;;;;;5.75;2.80;;;20.40;99.90;;;;;;8318745;28;20026;-79
2022/09/07 07:39:36;;;;;;;4.28;2.58;;;20.50;99.90;;;;;;8315397;28;20434;-79
2022/09/07 07:43:36;;;;;;;3.70;2.42;;;20.70;99.90;;;;;;8297976;28;20023;-79
2022/09/07 07:47:37;;;;;;;5.90;2.50;;;21.00;99.90;;;;;;8313231;28;20029;-79
2022/09/07 07:51:38;;;;;;;4.57;2.05;;;21.40;99.90;;;;;;8314376;28;20049;-80
2022/09/07 07:55:38;;;;;;;4.82;1.40;;;21.50;99.90;;;;;;8294297;28;20310;-79
2022/09/07 07:59:39;;;;;;;5.15;1.50;;;21.90;99.90;;;;;;8295718;28;20026;-80
2022/09/07 08:03:42;;;;;;;8.48;1.50;;;22.10;99.90;;;;;;8298901;28;20344;-80
2022/09/07 08:07:43;;;;;;;2.80;1.42;;;22.30;99.90;;;;;;8317149;28;20411;-80
2022/09/07 08:11:44;;;;;;;2.83;1.98;;;22.60;99.90;;;;;;8297991;28;20029;-79
2022/09/07 08:15:45;;;;;;;2.97;1.55;;;22.80;99.90;;;;;;8316760;28;20519;-81
2022/09/07 08:19:45;;;;;;;3.17;1.40;;;22.80;99.90;;;;;;8317884;28;20037;-80
2022/09/07 08:23:46;;;;;;;3.60;1.50;;;23.30;99.90;;;;;;8298629;28;20026;-80
2022/09/07 08:27:47;;;;;;;6.30;1.50;;;23.90;99.90;;;;;;8313734;28;20021;-81
2022/09/07 08:31:47;;;;;;;2.00;1.20;;;24.50;99.90;;;;;;8298468;28;20454;-80
2022/09/07 08:35:55;;;;;;;2.13;1.30;;;24.50;99.90;;;;;;8326449;28;20051;-80
2022/09/07 08:39:55;;;;;;;3.05;1.27;;;24.40;99.90;;;;;;8297548;28;20399;-81
2022/09/07 08:44:20;;;;;;;3.00;1.30;;;24.60;99.90;;;;;;8294622;28;20030;-81
2022/09/07 08:48:29;;;;;;;2.38;1.30;;;24.50;99.90;;;;;;8316799;28;20032;-81
2022/09/07 08:52:44;;;;;;;2.88;1.50;;;24.50;99.90;;;;;;8316178;28;20088;-79
2022/09/07 08:56:50;;;;;;;4.45;1.17;;;25.00;99.90;;;;;;8313870;28;20603;-81
2022/09/07 09:00:51;;;;;;;5.97;1.52;;;25.30;99.90;;;;;;8299035;28;20026;-80
2022/09/07 09:04:52;;;;;;;3.00;1.60;;;25.40;99.90;;;;;;8313171;28;20026;-80
2022/09/07 09:09:13;;;;;;;3.42;1.40;;;25.70;99.90;;;;;;8314516;28;20109;-81
2022/09/07 09:13:13;;;;;;;5.18;1.50;;;25.90;99.90;;;;;;8312133;28;20021;-80
2022/09/07 09:17:36;;;;;;;4.15;1.63;;;25.80;99.90;;;;;;8290279;28;20017;-80
2022/09/07 09:21:38;;;;;;;2.97;1.55;;;25.70;99.90;;;;;;8301173;28;20033;-80
2022/09/07 09:25:46;;;;;;;3.90;1.48;;;25.70;99.90;;;;;;8305715;28;20080;-80
2022/09/07 09:29:46;;;;;;;4.50;1.70;;;26.10;99.90;;;;;;8307977;28;20330;-81
2022/09/07 09:34:08;;;;;;;5.20;1.70;;;26.00;99.90;;;;;;8310842;28;20075;-78
2022/09/07 09:38:39;;;;;;;3.88;1.40;;;25.90;99.90;;;;;;8290307;28;20026;-81
2022/09/07 09:42:39;;;;;;;3.80;1.40;;;25.90;99.90;;;;;;8311311;28;20458;-79
2022/09/07 09:46:48;;;;;;;6.60;2.00;;;26.10;99.90;;;;;;8300648;28;20107;-80
2022/09/07 09:50:51;;;;;;;4.43;1.50;;;26.30;99.90;;;;;;8297223;28;20022;-81
2022/09/07 09:54:52;;;;;;;4.32;1.65;;;26.30;99.90;;;;;;8281993;28;20037;-81
2022/09/07 09:59:15;;;;;;;3.85;1.83;;;26.50;99.90;;;;;;8280809;28;20041;-81
2022/09/07 10:03:17;;;;;;;3.15;1.50;;;26.80;99.90;;;;;;8278312;28;20029;-81
2022/09/07 10:07:25;;;;;;;3.58;1.63;;;27.10;99.90;;;;;;8283403;28;20022;-81
2022/09/07 10:11:42;;;;;;;2.78;1.58;;;27.50;99.90;;;;;;8306134;28;20077;-80
2022/09/07 10:15:50;;;;;;;3.97;1.60;;;28.20;99.90;;;;;;8284794;28;20030;-81
2022/09/07 10:19:50;;;;;;;4.80;1.77;;;28.30;99.90;;;;;;8288107;28;20446;-81
2022/09/07 10:23:59;;;;;;;2.78;2.20;;;28.90;99.90;;;;;;8286160;28;20056;-80
2022/09/07 10:28:03;;;;;;;3.42;1.80;;;30.40;99.90;;;;;;8304152;28;20034;-82
2022/09/07 10:32:21;;;;;;;2.72;1.50;;;29.60;99.90;;;;;;8293268;28;20017;-81
2022/09/07 10:36:40;;;;;;;4.32;1.77;;;28.10;99.90;;;;;;8291273;28;20113;-81
2022/09/07 10:40:44;;;;;;;4.93;1.73;;;27.60;99.90;;;;;;8308618;28;20026;-80
2022/09/07 10:45:03;;;;;;;4.78;1.85;;;27.90;99.90;;;;;;8312783;28;20041;-82
2022/09/07 10:49:40;;;;;;;2.22;1.67;;;28.10;99.90;;;;;;8320800;28;20067;-81
2022/09/07 10:53:54;;;;;;;3.72;1.70;;;27.80;99.90;;;;;;8282605;28;20037;-81
2022/09/07 10:58:05;;;;;;;5.75;2.03;;;27.60;99.90;;;;;;8291112;28;20072;-81
2022/09/07 11:02:45;;;;;;;3.72;1.73;;;27.80;99.90;;;;;;8303755;28;20018;-81
2022/09/07 11:06:56;;;;;;;3.55;2.38;;;30.00;99.90;;;;;;8293891;28;20029;-79
2022/09/07 11:11:19;;;;;;;3.85;1.67;;;31.00;99.90;;;;;;8296887;28;20029;-82
2022/09/07 11:15:27;;;;;;;4.47;1.90;;;31.20;99.90;;;;;;8314414;28;20041;-81
2022/09/07 11:20:04;;;;;;;2.97;1.95;;;30.90;99.90;;;;;;8300169;28;20217;-80
2022/09/07 11:24:08;;;;;;;4.82;1.83;;;31.50;99.90;;;;;;8275167;28;20451;-80
2022/09/07 11:28:20;;;;;;;3.45;1.88;;;32.50;99.90;;;;;;8296231;28;20037;-82
2022/09/07 11:32:25;;;;;;;3.60;1.40;;;33.30;99.90;;;;;;8291812;28;20030;-81
2022/09/07 11:36:30;;;;;;;5.40;1.50;;;33.80;99.50;;;;;;8296436;28;20026;-82
2022/09/07 11:40:40;;;;;;;4.80;1.70;;;34.20;96.40;;;;;;8293530;28;20041;-82
2022/09/07 11:45:11;;;;;;;1.98;1.50;;;34.60;94.20;;;;;;8310520;28;20021;-82
2022/09/07 11:49:24;;;;;;;1.90;1.50;;;34.70;92.00;;;;;;8306939;28;20121;-82
2022/09/07 11:53:40;;;;;;;3.55;1.35;;;32.60;94.90;;;;;;8315766;28;20053;-82
2022/09/07 11:58:15;;;;;;;2.85;1.50;;;33.10;94.90;;;;;;8290621;28;20018;-81
2022/09/07 12:02:44;;;;;;;4.15;1.60;;;34.00;92.70;;;;;;8309749;28;20037;-82
2022/09/07 12:07:22;;;;;;;3.88;1.60;;;34.60;91.60;;;;;;8308151;28;20099;-82
2022/09/07 12:11:35;;;;;;;4.82;1.45;;;35.50;88.30;;;;;;8272710;28;20034;-81
2022/09/07 12:16:01;;;;;;;4.07;1.38;;;34.70;82.20;;;;;;8313874;28;20037;-81
2022/09/07 12:20:10;;;;;;;2.95;1.55;;;35.20;81.30;;;;;;8291328;28;20095;-81
2022/09/07 12:24:42;;;;;;;1.70;1.25;;;35.40;79.90;;;;;;8294912;28;20033;-82
2022/09/07 12:28:46;;;;;;;7.78;1.55;;;35.70;76.80;;;;;;8313302;28;20032;-82
2022/09/07 12:32:47;;;;;;;1.77;1.13;;;34.90;76.50;;;;;;8295819;28;20034;-81
2022/09/07 12:36:49;;;;;;;2.08;1.20;;;35.50;74.00;;;;;;8312847;28;20446;-82
2022/09/07 12:41:03;;;;;;;2.33;1.20;;;35.10;71.30;;;;;;8298102;28;20034;-80
2022/09/07 12:45:29;;;;;;;1.85;1.00;;;34.90;68.70;;;;;;8309736;28;20117;-81
2022/09/07 12:49:49;;;;;;;3.33;1.17;;;35.70;69.10;;;;;;8302657;28;20057;-82
2022/09/07 12:54:08;;;;;;;2.10;1.20;;;35.40;70.70;;;;;;8308091;28;20072;-81
2022/09/07 12:58:27;;;;;;;2.38;1.15;;;36.20;63.80;;;;;;8305043;28;20033;-80
2022/09/07 13:03:12;;;;;;;2.33;1.10;;;36.60;62.40;;;;;;8307339;28;20189;-82
2022/09/07 13:07:29;;;;;;;2.25;1.02;;;37.60;61.70;;;;;;8324677;28;20021;-82
2022/09/07 13:11:37;;;;;;;4.53;1.40;;;37.40;59.90;;;;;;8327771;28;20295;-81
2022/09/07 13:15:39;;;;;;;4.38;1.65;;;37.70;60.30;;;;;;8290326;28;20029;-82
2022/09/07 13:19:49;;;;;;;4.95;1.60;;;38.40;59.40;;;;;;8293687;28;20025;-81
2022/09/07 13:24:17;;;;;;;3.42;1.40;;;37.50;58.80;;;;;;8290453;28;20049;-81
2022/09/07 13:28:36;;;;;;;2.55;1.20;;;36.20;59.10;;;;;;8300786;28;20505;-81
2022/09/07 13:32:37;;;;;;;2.65;1.40;;;35.10;62.40;;;;;;8288082;28;20026;-82
2022/09/07 13:36:47;;;;;;;3.03;1.50;;;34.70;63.80;;;;;;8293451;28;20033;-81
2022/09/07 13:40:51;;;;;;;4.75;1.60;;;33.50;66.30;;;;;;8306769;28;20162;-82
2022/09/07 13:44:57;;;;;;;2.38;1.60;;;32.80;67.20;;;;;;8309232;28;20048;-80
2022/09/07 13:49:24;;;;;;;3.45;1.52;;;31.30;73.20;;;;;;8291637;28;20431;-81
2022/09/07 13:53:35;;;;;;;3.20;1.25;;;30.10;79.20;;;;;;8315961;28;20434;-81
2022/09/07 13:57:59;;;;;;;2.63;1.17;;;30.00;76.70;;;;;;8308977;28;20116;-82
2022/09/07 14:02:00;;;;;;;3.08;1.10;;;30.10;73.20;;;;;;8310658;28;20084;-81
2022/09/07 14:06:37;;;;;;;3.78;1.33;;;29.90;81.00;;;;;;8291714;28;20037;-81
2022/09/07 14:10:46;;;;;;;2.85;1.30;;;30.90;82.10;;;;;;8200807;28;20038;-82
2022/09/07 14:15:08;;;;;;;2.87;1.13;;;31.10;75.70;;;;;;8303672;28;20034;-81
2022/09/07 14:19:27;;;;;;;2.65;1.27;;;30.10;81.60;;;;;;8287953;28;20499;-81
2022/09/07 14:23:31;;;;;;;3.22;1.40;;;29.50;81.90;;;;;;8292126;28;20091;-82
2022/09/07 14:27:37;;;;;;;3.08;1.30;;;33.40;68.90;;;;;;8305251;28;20029;-82
2022/09/07 14:31:38;;;;;;;5.88;1.50;;;36.20;58.10;;;;;;8314454;28;20033;-82
2022/09/07 14:35:40;;;;;;;2.45;1.25;;;37.00;55.50;;;;;;8310744;28;20025;-82
2022/09/07 14:39:44;;;;;;;3.45;1.30;;;37.80;55.70;;;;;;8310503;28;20402;-82
2022/09/07 14:43:53;;;;;;;5.90;1.20;;;38.40;51.80;;;;;;8303120;28;20397;-82
2022/09/07 14:47:55;;;;;;;3.97;1.50;;;38.80;53.10;;;;;;8285157;28;20041;-81
2022/09/07 14:51:56;;;;;;;2.75;1.00;;;35.80;55.40;;;;;;8286253;28;20045;-81
2022/09/07 14:56:08;;;;;;;4.10;1.20;;;34.00;63.00;;;;;;8313836;28;20025;-81
2022/09/07 15:00:30;;;;;;;3.95;1.13;;;35.00;55.60;;;;;;8286245;28;20028;-81
2022/09/07 15:04:31;;;;;;;1.63;1.25;;;34.00;59.70;;;;;;8302717;28;20556;-81
2022/09/07 15:08:39;;;;;;;3.13;1.30;;;31.90;62.60;;;;;;8291033;28;20437;-81
2022/09/07 15:12:42;;;;;;;1.73;1.40;;;30.60;71.60;;;;;;8306352;28;20028;-81
2022/09/07 15:16:55;;;;;;;2.30;1.20;;;30.20;70.20;;;;;;8297745;28;20053;-81
2022/09/07 15:20:56;;;;;;;2.72;1.40;;;29.60;77.80;;;;;;8311252;28;20045;-82
2022/09/07 15:24:56;;;;;;;2.42;1.17;;;29.10;72.40;;;;;;8304072;28;20025;-82
2022/09/07 15:28:57;;;;;;;2.80;1.25;;;28.90;74.20;;;;;;8298877;28;20068;-81
2022/09/07 15:32:58;;;;;;;1.95;1.20;;;28.80;76.10;;;;;;8293749;28;20562;-82
2022/09/07 15:37:00;;;;;;;3.13;1.10;;;28.90;73.90;;;;;;8315912;28;20030;-81
2022/09/07 15:41:00;;;;;;;2.33;1.20;;;29.40;80.70;;;;;;8297385;28;20036;-81
2022/09/07 15:45:03;;;;;;;2.85;1.30;;;28.20;85.50;;;;;;8308567;28;20415;-82
2022/09/07 15:49:04;;;;;;;3.55;1.38;;;27.40;90.70;;;;;;8298855;28;20024;-81
2022/09/07 15:53:04;;;;;;;3.05;1.30;;;26.40;92.30;;;;;;8317141;28;20030;-81
2022/09/07 15:57:05;;;;;;;2.13;1.25;;;25.70;93.20;;;;;;8295748;28;20034;-80
2022/09/07 16:01:06;;;;;;;2.40;1.30;;;25.10;95.20;;;;;;8314475;28;20036;-81
2022/09/07 16:05:07;;;;;;;2.25;1.20;;;25.30;97.40;;;;;;8311010;28;20266;-81
2022/09/07 16:09:08;;;;;;;1.67;1.10;;;25.60;97.30;;;;;;8292779;28;20085;-81
2022/09/07 16:13:08;;;;;;;6.32;1.30;;;25.70;98.10;;;;;;8299952;28;20029;-82
2022/09/07 16:17:09;;;;;;;4.00;1.40;;;25.60;99.90;;;;;;8326550;28;20033;-81
2022/09/07 16:21:11;;;;;;;3.00;1.50;;;25.60;99.90;;;;;;8323774;28;20029;-81
2022/09/07 16:25:13;;;;;;;2.75;1.60;;;25.30;99.90;;;;;;8299741;28;20036;-81
2022/09/07 16:29:14;;;;;;;3.63;1.60;;;24.90;99.90;;;;;;8300907;28;20664;-81
2022/09/07 16:33:14;;;;;;;6.60;1.80;;;24.60;99.90;;;;;;8301372;28;20038;-82
2022/09/07 16:37:15;;;;;;;2.10;1.25;;;24.40;99.90;;;;;;8306661;28;20608;-83
2022/09/07 16:41:23;;;;;;;4.20;1.45;;;24.20;99.90;;;;;;8308807;28;20026;-82
2022/09/07 16:45:23;;;;;;;14.82;3.15;;;24.00;99.90;;;;;;8310170;28;20036;-81
2022/09/07 16:49:24;;;;;;;3.65;1.30;;;23.80;99.90;;;;;;8312624;28;20029;-81
2022/09/07 16:53:25;;;;;;;1.67;1.30;;;23.90;99.90;;;;;;8313555;28;20083;-80
2022/09/07 16:57:26;;;;;;;4.45;1.80;;;23.20;99.90;;;;;;8290516;28;20099;-83
2022/09/07 17:01:30;;;;;;;2.75;1.40;;;22.90;99.90;;;;;;8301404;28;20029;-82
2022/09/07 17:05:30;;;;;;;2.78;1.63;;;22.80;99.90;;;;;;8299214;28;20116;-82
2022/09/07 17:09:31;;;;;;;2.67;1.67;;;22.50;99.90;;;;;;8307348;28;20030;-82
2022/09/07 17:13:33;;;;;;;4.10;1.92;;;22.10;99.90;;;;;;8296638;28;20072;-83
2022/09/07 17:17:33;;;;;;;5.72;1.85;;;22.10;99.90;;;;;;8310345;28;20034;-81
2022/09/07 17:21:37;;;;;;;4.60;2.08;;;21.70;99.90;;;;;;8308859;28;20037;-82
2022/09/07 17:25:37;;;;;;;5.07;1.95;;;21.10;99.90;;;;;;8309948;28;20542;-82
2022/09/07 17:29:39;;;;;;;5.07;2.10;;;20.70;99.90;;;;;;8302673;28;20036;-81
2022/09/07 17:33:40;;;;;;;3.25;1.83;;;20.60;99.90;;;;;;8317296;28;20026;-81
2022/09/07 17:37:41;;;;;;;3.53;2.15;;;20.50;99.90;;;;;;8309521;28;20045;-81
2022/09/07 17:41:41;;;;;;;4.10;1.98;;;20.20;99.90;;;;;;8285702;28;20038;-81
2022/09/07 17:45:42;;;;;;;3.88;2.03;;;20.20;99.90;;;;;;8295868;28;20025;-81
2022/09/07 17:49:42;;;;;;;4.28;2.25;;;20.20;99.90;;;;;;8289160;28;20072;-81
2022/09/07 17:53:44;;;;;;;3.05;1.95;;;20.10;99.90;;;;;;8307250;28;20137;-81
2022/09/07 17:57:44;;;;;;;3.30;2.00;;;20.00;99.90;;;;;;8281668;28;20030;-81
2022/09/07 18:01:45;;;;;;;6.05;2.47;;;19.80;99.90;;;;;;8282146;28;20057;-81
2022/09/07 18:05:45;;;;;;;3.10;2.38;;;19.60;99.90;;;;;;8297640;28;20025;-81
2022/09/07 18:09:46;;;;;;;6.18;3.03;;;19.40;99.90;;;;;;8294455;28;20053;-81
2022/09/07 18:13:54;;;;;;;4.50;2.58;;;19.30;99.90;;;;;;8302052;28;20091;-80
2022/09/07 18:17:57;;;;;;;10.77;2.83;;;19.10;99.90;;;;;;8285450;28;20615;-81
2022/09/07 18:21:58;;;;;;;2.95;2.30;;;19.20;99.90;;;;;;8281590;28;20032;-80
2022/09/07 18:25:59;;;;;;;4.70;2.70;;;19.20;99.90;;;;;;8300364;28;20388;-81
2022/09/07 18:29:59;;;;;;;4.93;2.38;;;19.10;99.90;;;;;;8301594;28;20049;-81
2022/09/07 18:34:00;;;;;;;5.57;2.40;;;18.90;99.90;;;;;;8281823;28;20061;-81
2022/09/07 18:38:01;;;;;;;3.88;2.80;;;18.70;99.90;;;;;;8275115;28;20030;-80
2022/09/07 18:42:02;;;;;;;3.85;2.40;;;18.70;99.90;;;;;;8277462;28;20029;-78
2022/09/07 18:46:14;;;;;;;3.05;2.58;;;19.10;99.90;;;;;;8274655;28;20113;-78
2022/09/07 18:50:16;;;;;;;7.15;2.40;;;18.70;99.90;;;;;;8274987;28;20021;-80
2022/09/07 18:54:16;;;;;;;3.30;2.08;;;18.50;99.90;;;;;;8285124;28;20049;-80
2022/09/07 18:58:17;;;;;;;2.45;2.20;;;18.20;99.90;;;;;;8283026;28;20117;-80
2022/09/07 19:02:18;;;;;;;3.85;2.40;;;18.20;99.90;;;;;;8277532;28;20033;-78
2022/09/07 19:06:18;;;;;;;3.53;2.72;;;18.10;99.90;;;;;;8283242;28;20062;-79
2022/09/07 19:10:19;;;;;;;4.15;2.65;;;17.90;99.90;;;;;;8280660;28;20573;-81
2022/09/07 19:14:20;;;;;;;4.35;2.95;;;17.90;99.90;;;;;;8295524;28;20099;-81
2022/09/07 19:18:20;;;;;;;3.65;2.40;;;17.90;99.90;;;;;;8296977;28;20026;-81
2022/09/07 19:22:21;;;;;;;7.18;3.33;;;18.10;99.90;;;;;;8283400;28;20029;-79
2022/09/07 19:26:26;;;;;;;5.65;2.83;;;18.30;99.90;;;;;;8285035;28;20034;-81
2022/09/07 19:30:27;;;;;;;3.35;2.70;;;18.10;99.90;;;;;;8283341;28;20079;-80
2022/09/07 19:34:27;;;;;;;11.10;2.60;;;18.10;99.90;;;;;;8280332;28;20111;-80
2022/09/07 19:38:28;;;;;;;5.82;3.08;;;18.30;99.90;;;;;;8301297;28;20060;-81
2022/09/07 19:42:28;;;;;;;3.67;2.45;;;18.20;99.90;;;;;;8296933;28;20040;-80
2022/09/07 19:46:29;;;;;;;3.50;2.70;;;18.00;99.90;;;;;;8283108;28;20034;-81
2022/09/07 19:50:31;;;;;;;4.00;2.90;;;18.10;99.90;;;;;;8282803;28;20026;-81
2022/09/07 19:54:32;;;;;;;4.13;3.10;;;18.40;99.90;;;;;;8302486;28;20047;-79
2022/09/07 19:58:38;;;;;;;4.80;3.20;;;18.30;99.90;;;;;;8283361;28;20029;-80
2022/09/07 20:02:39;;;;;;;4.50;2.75;;;18.30;99.90;;;;;;8301713;28;20030;-81
2022/09/07 20:06:39;;;;;;;7.43;3.03;;;18.30;99.90;;;;;;8315047;28;20395;-79
2022/09/07 20:10:40;;;;;;;4.80;2.90;;;18.30;99.90;;;;;;8301661;28;20388;-79
2022/09/07 20:14:41;;;;;;;5.43;2.92;;;18.80;99.90;;;;;;8305145;28;20029;-80
2022/09/07 20:18:42;;;;;;;5.15;3.00;;;18.80;99.90;;;;;;8296830;28;20500;-79
2022/09/07 20:22:42;;;;;;;6.10;3.25;;;18.80;99.90;;;;;;8310547;28;20026;-80
2022/09/07 20:26:43;;;;;;;7.85;1.75;;;19.00;99.90;;;;;;8313807;28;20021;-81
2022/09/07 20:30:43;;;;;;;5.68;1.00;;;19.00;99.90;;;;;;8296069;28;20029;-79
2022/09/07 20:34:44;;;;;;;6.18;1.50;;;18.30;99.90;;;;;;8295888;28;20048;-78
2022/09/07 20:38:50;;;;;;;13.27;1.90;;;16.90;99.90;;;;;;8306804;28;20161;-83
2022/09/07 20:42:51;;;;;;;13.43;1.85;;;15.80;99.90;;;;;;8300224;28;20491;-82
2022/09/07 20:46:51;;;;;;;9.07;1.27;;;15.20;99.90;;;;;;8299634;28;20030;-80
2022/09/07 20:50:59;;;;;;;2.85;0.77;;;15.10;99.90;;;;;;8293720;28;20054;-83
2022/09/07 20:55:00;;;;;;;0.93;0.70;;;15.00;99.90;;;;;;8290198;28;20495;-83
2022/09/07 20:59:02;;;;;;;6.97;0.90;;;14.80;99.90;;;;;;8328310;28;20040;-83
2022/09/07 21:03:02;;;;;;;4.57;0.65;;;14.50;99.90;;;;;;8310750;28;20072;-83
2022/09/07 21:07:03;;;;;;;0.00;0.00;;;14.30;99.90;;;;;;8325105;28;20467;-84
2022/09/07 21:11:10;;;;;;;0.00;0.00;;;14.20;99.90;;;;;;8291376;28;20029;-85
2022/09/07 21:15:10;;;;;;;0.00;0.00;;;14.50;99.90;;;;;;8315918;28;20045;-84